Hemlock, New York
Current Conditions -  °F | °C
As of 5:54 PM on Saturday 25 Oct 2014 (Local Time) from KDSV Reporting Station
Clear Clear  
Wind Chill: 61°   Ceiling: Unl
Heat Index: 61°   Visibility: 10mi
Dew Point: 50°   Wind: 8mph
Humidity: 67%   Direction: 290°WNW
Pressure: 29.63"   Gusts: NA
Location:  42.79°N, 77.61°W
Report Text: KDSV 252154Z AUTO 29007KT 10SM CLR 16/10 A2963 RMK AO2 PK WND 31031/2100 RAE21 SLP041 P0000 T01610100
Loading
Personal Weather Stations






























Interactive Weather Map
Tropical Storm Tracking
New forecast layout! Learn more

10-Day Weather Forecast

Advertisements
Track Severe Weather on mobile